Time;durP1;ratioP1;P1;durP2;ratioP2;P2;SDS_P1;SDS_P2;PMS_P1;PMS_P2;Temp;Humidity;BMP_temperature;BMP_pressure;BME280_temperature;BME280_humidity;BME280_pressure;Samples;Min_cycle;Max_cycle;Signal;HPM_P1;HPM_P2
2024/02/16 00:01:49;;;;;;;19.47;18.30;;;11.60;99.90;;;;;;5052320;28;20451;-67
2024/02/16 00:04:16;;;;;;;19.13;17.63;;;11.60;99.90;;;;;;5052250;28;20471;-68
2024/02/16 00:06:43;;;;;;;15.57;14.33;;;11.60;99.90;;;;;;5053193;28;20454;-67
2024/02/16 00:09:10;;;;;;;13.17;12.10;;;11.60;99.90;;;;;;5051744;28;20965;-67
2024/02/16 00:11:38;;;;;;;10.20;9.20;;;11.70;99.90;;;;;;5051572;28;20462;-67
2024/02/16 00:14:05;;;;;;;8.43;7.10;;;11.70;99.90;;;;;;5051905;28;20478;-68
2024/02/16 00:16:32;;;;;;;9.33;8.33;;;11.80;99.90;;;;;;5051824;28;20483;-67
2024/02/16 00:18:59;;;;;;;7.27;6.20;;;11.90;99.90;;;;;;5051311;28;20473;-67
2024/02/16 00:21:26;;;;;;;11.07;6.33;;;12.10;99.90;;;;;;5051869;28;20826;-67
2024/02/16 00:23:52;;;;;;;8.93;5.83;;;11.90;99.90;;;;;;5051376;28;20479;-68
2024/02/16 00:26:21;;;;;;;8.03;5.93;;;12.00;99.90;;;;;;5051855;28;20447;-68
2024/02/16 00:28:49;;;;;;;7.27;5.07;;;12.00;99.90;;;;;;5051674;28;21047;-68
2024/02/16 00:31:16;;;;;;;6.97;5.00;;;12.00;99.90;;;;;;5052085;28;20451;-67
2024/02/16 00:33:42;;;;;;;7.83;5.30;;;12.00;99.90;;;;;;5051317;28;20912;-67
2024/02/16 00:36:10;;;;;;;7.20;4.63;;;12.00;99.90;;;;;;5051841;28;20482;-67
2024/02/16 00:38:37;;;;;;;8.67;4.60;;;12.00;99.90;;;;;;5051798;28;20459;-67
2024/02/16 00:41:04;;;;;;;13.50;5.70;;;12.10;99.90;;;;;;5051851;28;20841;-68
2024/02/16 00:43:31;;;;;;;7.23;5.60;;;12.10;99.90;;;;;;5051281;28;20475;-67
2024/02/16 00:45:59;;;;;;;8.13;4.37;;;12.30;99.90;;;;;;5051473;28;20998;-68
2024/02/16 00:48:26;;;;;;;8.43;4.40;;;12.30;99.90;;;;;;5051893;28;20497;-67
2024/02/16 00:50:53;;;;;;;6.90;4.37;;;12.20;99.90;;;;;;5051142;28;20455;-67
2024/02/16 00:53:20;;;;;;;7.73;4.10;;;12.30;99.90;;;;;;5051106;28;20482;-68
2024/02/16 00:55:47;;;;;;;7.13;4.30;;;12.20;99.90;;;;;;5051912;28;20489;-67
2024/02/16 00:58:14;;;;;;;6.30;4.40;;;12.20;99.90;;;;;;5051627;28;20473;-67
2024/02/16 01:00:41;;;;;;;6.33;4.30;;;12.20;99.90;;;;;;5052307;28;20451;-68
2024/02/16 01:03:09;;;;;;;13.40;5.90;;;12.20;99.90;;;;;;5051812;28;20990;-68
2024/02/16 01:05:36;;;;;;;7.80;4.37;;;12.20;99.90;;;;;;5052796;28;20491;-67
2024/02/16 01:08:03;;;;;;;7.93;4.90;;;12.20;99.90;;;;;;5052806;28;20975;-68
2024/02/16 01:10:30;;;;;;;8.50;5.30;;;12.20;99.90;;;;;;5052292;28;20455;-67
2024/02/16 01:12:57;;;;;;;11.27;5.60;;;12.10;99.90;;;;;;5050900;28;20479;-68
2024/02/16 01:15:24;;;;;;;7.00;5.33;;;12.10;99.90;;;;;;5051347;28;21029;-66
2024/02/16 01:17:50;;;;;;;7.93;4.97;;;12.10;99.90;;;;;;5051239;28;20838;-67
2024/02/16 01:20:20;;;;;;;6.50;4.47;;;12.10;99.90;;;;;;5051304;28;20519;-67
2024/02/16 01:22:47;;;;;;;8.60;5.10;;;12.10;99.90;;;;;;5051231;28;20521;-67
2024/02/16 01:25:13;;;;;;;10.80;4.83;;;12.10;99.90;;;;;;5051281;28;20455;-67
2024/02/16 01:27:41;;;;;;;9.67;4.60;;;12.10;99.90;;;;;;5051114;28;20954;-66
2024/02/16 01:30:08;;;;;;;9.57;5.93;;;12.10;99.90;;;;;;5051252;28;20840;-67
2024/02/16 01:32:35;;;;;;;7.10;5.20;;;12.10;99.90;;;;;;5052728;28;20874;-68
2024/02/16 01:35:02;;;;;;;8.70;5.27;;;12.10;99.90;;;;;;5054893;28;20462;-68
2024/02/16 01:37:31;;;;;;;7.40;4.93;;;12.10;99.90;;;;;;5054462;28;20510;-68
2024/02/16 01:39:58;;;;;;;6.67;5.60;;;12.10;99.90;;;;;;5054280;28;20451;-67
2024/02/16 01:42:25;;;;;;;10.50;5.90;;;12.00;99.90;;;;;;5054101;28;20892;-67
2024/02/16 01:44:52;;;;;;;8.33;6.33;;;12.00;99.90;;;;;;5054390;28;20451;-68
2024/02/16 01:47:20;;;;;;;8.23;7.37;;;12.00;99.90;;;;;;5054616;28;20462;-68
2024/02/16 01:49:47;;;;;;;8.03;7.20;;;12.10;99.90;;;;;;5054484;28;20452;-67
2024/02/16 01:52:14;;;;;;;8.07;7.37;;;12.00;99.90;;;;;;5054202;28;20454;-67
2024/02/16 01:54:42;;;;;;;8.57;7.63;;;11.90;99.90;;;;;;5054333;28;20838;-67
2024/02/16 01:57:10;;;;;;;10.17;9.27;;;11.90;99.90;;;;;;5054299;28;20490;-67
2024/02/16 01:59:40;;;;;;;13.07;11.90;;;11.90;99.90;;;;;;5053832;28;20466;-68
2024/02/16 02:02:06;;;;;;;19.50;15.20;;;11.80;99.90;;;;;;5054031;28;20459;-67
2024/02/16 02:04:33;;;;;;;18.63;17.23;;;11.80;99.90;;;;;;5054369;28;20447;-68
2024/02/16 02:07:00;;;;;;;21.20;20.10;;;11.80;99.90;;;;;;5054447;28;20497;-67
2024/02/16 02:09:27;;;;;;;27.57;26.07;;;11.70;99.90;;;;;;5054681;28;20447;-67
2024/02/16 02:11:55;;;;;;;29.97;28.27;;;11.70;99.90;;;;;;5053852;28;20458;-68
2024/02/16 02:14:25;;;;;;;110.57;106.77;;;11.70;99.90;;;;;;5054166;28;20482;-68
2024/02/16 02:16:52;;;;;;;198.17;191.67;;;11.60;99.90;;;;;;5054115;28;20480;-68
2024/02/16 02:19:19;;;;;;;223.07;215.90;;;11.50;99.90;;;;;;5053604;28;21019;-66
2024/02/16 02:21:46;;;;;;;239.60;232.10;;;11.40;99.90;;;;;;5053429;28;20462;-66
2024/02/16 02:24:14;;;;;;;268.10;259.53;;;11.30;99.90;;;;;;5053663;28;20482;-67
2024/02/16 02:26:41;;;;;;;281.67;272.87;;;11.30;99.90;;;;;;5053298;28;20454;-67
2024/02/16 02:29:08;;;;;;;231.70;224.33;;;11.30;99.90;;;;;;5053973;28;20451;-68
2024/02/16 02:31:35;;;;;;;186.97;180.87;;;11.40;99.90;;;;;;5053701;28;20938;-67
2024/02/16 02:34:02;;;;;;;147.57;142.27;;;11.40;99.90;;;;;;5053243;28;20471;-67
2024/02/16 02:36:28;;;;;;;120.90;116.77;;;11.40;99.90;;;;;;5053443;28;20475;-68
2024/02/16 02:38:55;;;;;;;165.10;159.43;;;11.50;99.90;;;;;;5053570;28;20451;-68
2024/02/16 02:41:23;;;;;;;157.13;151.63;;;11.40;99.90;;;;;;5053270;28;20458;-68
2024/02/16 02:43:50;;;;;;;198.77;192.37;;;11.40;99.90;;;;;;5052435;28;20471;-68
2024/02/16 02:46:17;;;;;;;220.07;213.00;;;11.40;99.90;;;;;;5053523;28;20448;-68
2024/02/16 02:48:45;;;;;;;202.43;195.87;;;11.40;99.90;;;;;;5053345;28;20455;-68
2024/02/16 02:51:12;;;;;;;229.07;221.43;;;11.40;99.90;;;;;;5053053;28;20554;-68
2024/02/16 02:53:39;;;;;;;220.13;212.93;;;11.40;99.90;;;;;;5052528;28;20468;-67
2024/02/16 02:56:07;;;;;;;225.90;218.63;;;11.40;99.90;;;;;;5053345;28;20475;-68
2024/02/16 02:58:35;;;;;;;261.90;253.30;;;11.40;99.90;;;;;;5053347;28;20482;-68
2024/02/16 03:01:02;;;;;;;264.07;255.37;;;11.40;99.90;;;;;;5052944;28;20950;-68
2024/02/16 03:03:29;;;;;;;244.70;237.00;;;11.30;99.90;;;;;;5052418;28;20475;-68
2024/02/16 03:05:56;;;;;;;255.60;247.50;;;11.40;99.90;;;;;;5052831;28;20462;-68
2024/02/16 03:08:22;;;;;;;272.67;263.90;;;11.40;99.90;;;;;;5052636;28;20459;-69
2024/02/16 03:10:49;;;;;;;294.60;285.00;;;11.30;99.90;;;;;;5053263;28;20459;-68
2024/02/16 03:13:18;;;;;;;289.50;280.10;;;11.30;99.90;;;;;;5052519;28;20470;-69
2024/02/16 03:15:46;;;;;;;302.73;292.53;;;11.30;99.90;;;;;;5052700;28;20541;-68
2024/02/16 03:18:13;;;;;;;313.10;302.93;;;11.40;99.90;;;;;;5052985;28;20858;-69
2024/02/16 03:20:40;;;;;;;327.80;316.70;;;11.30;99.90;;;;;;5052533;28;20498;-67
2024/02/16 03:23:07;;;;;;;341.03;329.27;;;11.30;99.90;;;;;;5052038;28;20467;-69
2024/02/16 03:25:34;;;;;;;322.97;312.00;;;11.30;99.90;;;;;;5052610;28;20899;-69
2024/02/16 03:28:01;;;;;;;330.87;319.27;;;11.30;99.90;;;;;;5052463;28;20914;-69
2024/02/16 03:30:28;;;;;;;345.30;333.33;;;11.30;99.90;;;;;;5052444;28;20459;-68
2024/02/16 03:32:56;;;;;;;364.60;351.80;;;11.30;99.90;;;;;;5051724;28;20475;-68
2024/02/16 03:35:23;;;;;;;364.50;351.63;;;11.30;99.90;;;;;;5052268;28;20909;-69
2024/02/16 03:37:50;;;;;;;373.03;359.93;;;11.30;99.90;;;;;;5052450;28;20483;-68
2024/02/16 03:40:18;;;;;;;377.03;363.13;;;11.40;99.90;;;;;;5052362;28;20898;-68
2024/02/16 03:42:44;;;;;;;374.60;361.00;;;11.30;99.90;;;;;;5051751;28;20987;-68
2024/02/16 03:45:12;;;;;;;381.40;367.70;;;11.40;99.90;;;;;;5052344;28;20455;-68
2024/02/16 03:47:41;;;;;;;372.47;359.07;;;11.40;99.90;;;;;;5052072;28;20447;-68
2024/02/16 03:50:10;;;;;;;397.60;383.33;;;11.40;99.90;;;;;;5052329;28;20517;-68
2024/02/16 03:52:37;;;;;;;391.10;377.07;;;11.40;99.90;;;;;;5051792;28;20558;-68
2024/02/16 03:55:05;;;;;;;396.57;382.23;;;11.40;99.90;;;;;;5051553;28;20455;-68
2024/02/16 03:57:32;;;;;;;412.00;396.50;;;11.40;99.90;;;;;;5051969;28;20480;-68
2024/02/16 03:59:59;;;;;;;442.43;425.63;;;11.40;99.90;;;;;;5051932;28;20463;-68
2024/02/16 04:02:26;;;;;;;422.77;406.67;;;11.50;99.90;;;;;;5051368;28;20475;-68
2024/02/16 04:04:52;;;;;;;424.27;408.37;;;11.40;99.90;;;;;;5052128;28;20451;-68
2024/02/16 04:07:20;;;;;;;411.87;396.37;;;11.40;99.90;;;;;;5052239;28;20447;-68
2024/02/16 04:09:46;;;;;;;372.50;358.70;;;11.40;99.90;;;;;;5052037;28;20451;-68
2024/02/16 04:12:13;;;;;;;404.63;389.77;;;11.40;99.90;;;;;;5051537;28;20455;-68
2024/02/16 04:14:41;;;;;;;425.10;408.77;;;11.40;99.90;;;;;;5052078;28;20197;-68
2024/02/16 04:17:08;;;;;;;407.53;392.43;;;11.40;99.90;;;;;;5051567;28;20566;-68
2024/02/16 04:19:37;;;;;;;410.23;394.83;;;11.40;99.90;;;;;;5051981;28;20451;-68
2024/02/16 04:22:04;;;;;;;424.83;408.97;;;11.40;99.90;;;;;;5051619;28;20481;-68
2024/02/16 04:24:32;;;;;;;444.60;427.77;;;11.40;99.90;;;;;;5051891;28;20942;-68
2024/02/16 04:26:59;;;;;;;450.17;433.17;;;11.40;99.90;;;;;;5051516;28;20951;-68
2024/02/16 04:29:26;;;;;;;453.03;435.93;;;11.30;99.90;;;;;;5051702;28;20938;-68
2024/02/16 04:31:53;;;;;;;458.43;441.17;;;11.40;99.90;;;;;;5051585;28;20458;-68
2024/02/16 04:34:20;;;;;;;471.17;453.07;;;11.40;99.90;;;;;;5051649;28;20482;-68
2024/02/16 04:36:46;;;;;;;487.30;468.50;;;11.30;99.90;;;;;;5051821;28;20859;-68
2024/02/16 04:39:14;;;;;;;461.50;443.60;;;11.30;99.90;;;;;;5051831;28;20455;-68
2024/02/16 04:41:42;;;;;;;497.33;477.60;;;11.30;99.90;;;;;;5051386;28;20463;-68
2024/02/16 04:44:09;;;;;;;499.27;479.40;;;11.20;99.90;;;;;;5051292;28;20861;-67
2024/02/16 04:46:36;;;;;;;489.70;470.10;;;11.20;99.90;;;;;;5051780;28;20447;-67
2024/02/16 04:49:03;;;;;;;528.07;506.40;;;11.20;99.90;;;;;;5051613;28;20459;-68
2024/02/16 04:51:30;;;;;;;529.73;507.13;;;11.10;99.90;;;;;;5051454;28;20455;-68
2024/02/16 04:53:56;;;;;;;576.43;551.73;;;11.10;99.90;;;;;;5051408;28;20478;-67
2024/02/16 04:56:23;;;;;;;624.83;596.67;;;11.10;99.90;;;;;;5052903;28;20462;-68
2024/02/16 04:58:52;;;;;;;660.50;630.33;;;11.00;99.90;;;;;;5051207;28;20513;-67
2024/02/16 05:01:18;;;;;;;693.73;660.87;;;11.10;99.90;;;;;;5051661;28;20451;-67
2024/02/16 05:03:45;;;;;;;668.73;637.53;;;11.00;99.90;;;;;;5050839;28;20475;-67
2024/02/16 05:06:12;;;;;;;669.37;637.33;;;11.00;99.90;;;;;;5053305;28;20459;-68
2024/02/16 05:08:39;;;;;;;678.00;645.50;;;11.00;99.90;;;;;;5055407;28;20455;-67
2024/02/16 05:11:07;;;;;;;656.63;625.30;;;11.00;99.90;;;;;;5055417;28;20841;-67
2024/02/16 05:13:34;;;;;;;650.17;618.73;;;11.10;99.90;;;;;;5054631;28;20467;-68
2024/02/16 05:16:02;;;;;;;659.53;627.53;;;10.90;99.90;;;;;;5055292;28;20469;-68
2024/02/16 05:18:29;;;;;;;668.13;635.53;;;11.00;99.90;;;;;;5055032;28;20475;-67
2024/02/16 05:20:55;;;;;;;697.67;663.47;;;10.80;99.90;;;;;;5054917;28;20461;-67
2024/02/16 05:23:23;;;;;;;681.50;648.00;;;10.70;99.90;;;;;;5054458;28;20481;-67
2024/02/16 05:25:49;;;;;;;706.97;671.87;;;10.70;99.90;;;;;;5054785;28;20458;-67
2024/02/16 05:28:16;;;;;;;735.53;697.50;;;10.60;99.90;;;;;;5060211;28;20457;-67
2024/02/16 05:30:43;;;;;;;749.27;710.37;;;10.60;99.90;;;;;;5071018;28;20479;-67
2024/02/16 05:33:13;;;;;;;741.37;701.57;;;10.60;99.90;;;;;;5072424;28;20506;-68
2024/02/16 05:35:40;;;;;;;669.20;634.60;;;10.70;99.90;;;;;;5066315;28;20451;-67
2024/02/16 05:38:20;;;;;;;658.60;624.60;;;10.70;99.90;;;;;;5046706;28;20475;-67
2024/02/16 05:40:53;;;;;;;622.80;591.00;;;10.80;99.90;;;;;;5054577;28;20495;-67
2024/02/16 05:43:20;;;;;;;598.70;569.73;;;10.90;99.90;;;;;;5054410;28;20998;-68
2024/02/16 05:45:47;;;;;;;584.30;556.00;;;10.90;99.90;;;;;;5054526;28;21040;-68
2024/02/16 05:48:15;;;;;;;579.67;552.17;;;11.00;99.90;;;;;;5054434;28;20454;-68
2024/02/16 05:50:43;;;;;;;553.70;527.90;;;11.00;99.90;;;;;;5054087;28;20455;-67
2024/02/16 05:53:10;;;;;;;559.93;534.13;;;11.10;99.90;;;;;;5053670;28;20479;-68
2024/02/16 05:55:37;;;;;;;510.47;487.67;;;11.10;99.90;;;;;;5054551;28;20475;-68
2024/02/16 05:58:04;;;;;;;493.93;472.13;;;11.30;99.90;;;;;;5054064;28;20482;-67
2024/02/16 06:00:34;;;;;;;466.27;445.97;;;11.20;99.90;;;;;;5054049;28;20463;-67
2024/02/16 06:03:00;;;;;;;470.97;450.73;;;11.20;99.90;;;;;;5053433;28;20479;-67
2024/02/16 06:05:30;;;;;;;436.77;418.37;;;11.20;99.90;;;;;;5053877;28;20447;-67
2024/02/16 06:07:58;;;;;;;385.90;369.60;;;11.30;99.90;;;;;;5052927;28;20451;-67
2024/02/16 06:10:25;;;;;;;370.40;355.53;;;11.40;99.90;;;;;;5054218;28;20451;-68
2024/02/16 06:12:53;;;;;;;353.57;339.30;;;11.40;99.90;;;;;;5053668;28;20471;-68
2024/02/16 06:15:19;;;;;;;338.13;325.20;;;11.40;99.90;;;;;;5053930;28;20808;-68
2024/02/16 06:17:46;;;;;;;322.10;309.63;;;11.50;99.90;;;;;;5052838;28;20506;-67
2024/02/16 06:20:14;;;;;;;296.17;285.07;;;11.50;99.90;;;;;;5053865;28;20447;-68
2024/02/16 06:22:42;;;;;;;279.47;269.27;;;11.50;99.90;;;;;;5053506;28;20478;-68
2024/02/16 06:25:09;;;;;;;278.30;268.17;;;11.50;99.90;;;;;;5045814;28;20461;-67
2024/02/16 06:27:36;;;;;;;259.60;250.47;;;11.60;99.90;;;;;;5053661;28;20451;-68
2024/02/16 06:30:04;;;;;;;238.00;229.60;;;11.60;99.90;;;;;;5053414;28;20451;-67
2024/02/16 06:32:32;;;;;;;227.10;219.20;;;11.60;99.90;;;;;;5053106;28;20901;-67
2024/02/16 06:34:58;;;;;;;215.00;207.50;;;11.60;99.90;;;;;;5053544;28;20467;-67
2024/02/16 06:37:25;;;;;;;224.67;216.87;;;11.60;99.90;;;;;;5053614;28;20489;-68
2024/02/16 06:39:54;;;;;;;226.47;218.17;;;11.60;99.90;;;;;;5051918;28;20501;-67
2024/02/16 06:42:20;;;;;;;238.97;230.37;;;11.60;99.90;;;;;;5051748;28;20483;-68
2024/02/16 06:44:47;;;;;;;252.07;243.07;;;11.50;99.90;;;;;;5053056;28;20550;-67
2024/02/16 06:47:14;;;;;;;245.33;236.77;;;11.50;99.90;;;;;;5052856;28;20509;-68
2024/02/16 06:49:41;;;;;;;242.10;233.70;;;11.50;99.90;;;;;;5052734;28;20954;-67
2024/02/16 06:52:09;;;;;;;227.77;220.00;;;11.50;99.90;;;;;;5052243;28;20509;-68
2024/02/16 06:54:36;;;;;;;221.23;213.63;;;11.70;99.90;;;;;;5052753;28;20463;-67
2024/02/16 06:57:05;;;;;;;223.53;215.73;;;11.60;99.90;;;;;;5052380;28;20947;-68
2024/02/16 06:59:32;;;;;;;228.80;220.60;;;11.60;99.90;;;;;;5052784;28;20904;-68
2024/02/16 07:01:59;;;;;;;246.97;238.23;;;11.60;99.90;;;;;;5052089;28;20973;-68
2024/02/16 07:04:25;;;;;;;264.90;255.13;;;11.60;99.90;;;;;;5053183;28;20853;-68
2024/02/16 07:06:52;;;;;;;276.10;265.67;;;11.50;99.90;;;;;;5052959;28;20458;-67
2024/02/16 07:09:21;;;;;;;298.93;287.67;;;11.50;99.90;;;;;;5052803;28;20451;-68
2024/02/16 07:11:50;;;;;;;306.30;294.60;;;11.50;99.90;;;;;;5051928;28;20893;-67
2024/02/16 07:14:18;;;;;;;306.30;294.47;;;11.60;99.90;;;;;;5052128;28;20553;-68
2024/02/16 07:16:45;;;;;;;305.43;293.63;;;11.60;99.90;;;;;;5052092;28;20763;-68
2024/02/16 07:19:12;;;;;;;316.17;303.37;;;11.60;99.90;;;;;;5052408;28;20482;-67
2024/02/16 07:21:39;;;;;;;310.40;298.47;;;11.60;99.90;;;;;;5052207;28;20975;-68
2024/02/16 07:24:07;;;;;;;312.23;300.07;;;11.60;99.90;;;;;;5051686;28;20475;-67
2024/02/16 07:26:34;;;;;;;318.83;306.47;;;11.70;99.90;;;;;;5052181;28;20451;-68
2024/02/16 07:29:01;;;;;;;313.60;301.17;;;11.70;99.90;;;;;;5051751;28;21212;-68
2024/02/16 07:31:34;;;;;;;322.80;310.20;;;11.70;99.90;;;;;;5052264;28;20451;-64
2024/02/16 07:34:00;;;;;;;333.10;320.13;;;11.70;99.90;;;;;;5051827;28;20928;-68
2024/02/16 07:36:27;;;;;;;319.90;307.43;;;11.80;99.90;;;;;;5052314;28;20541;-68
2024/02/16 07:38:54;;;;;;;308.53;296.50;;;11.80;99.90;;;;;;5052191;28;20521;-68
2024/02/16 07:41:21;;;;;;;277.33;267.13;;;11.80;99.90;;;;;;5052081;28;20483;-68
2024/02/16 07:43:48;;;;;;;229.10;220.97;;;11.90;99.90;;;;;;5051819;28;20471;-68
2024/02/16 07:46:15;;;;;;;184.60;178.10;;;12.00;99.90;;;;;;5052453;28;20481;-67
2024/02/16 07:48:42;;;;;;;166.73;160.17;;;12.00;99.90;;;;;;5051797;28;20475;-67
2024/02/16 07:51:09;;;;;;;175.03;168.83;;;12.10;99.90;;;;;;5050365;28;20904;-67
2024/02/16 07:53:36;;;;;;;183.53;177.07;;;12.10;99.90;;;;;;5050904;28;20471;-68
2024/02/16 07:56:03;;;;;;;189.10;182.50;;;12.20;99.90;;;;;;5051237;28;20465;-67
2024/02/16 07:58:31;;;;;;;158.63;151.93;;;12.20;99.90;;;;;;5051263;28;21017;-68
2024/02/16 08:00:57;;;;;;;134.23;129.50;;;12.20;99.90;;;;;;5051397;28;20455;-66
2024/02/16 08:03:24;;;;;;;112.43;108.07;;;12.20;99.90;;;;;;5050824;28;20471;-68
2024/02/16 08:05:52;;;;;;;115.50;110.57;;;12.20;99.90;;;;;;5050962;28;20735;-67
2024/02/16 08:08:20;;;;;;;95.03;91.27;;;12.20;99.90;;;;;;5051264;28;20478;-67
2024/02/16 08:10:47;;;;;;;73.47;69.77;;;12.40;99.90;;;;;;5051314;28;20466;-67
2024/02/16 08:13:13;;;;;;;59.27;56.60;;;12.40;99.90;;;;;;5051209;28;20502;-67
2024/02/16 08:15:40;;;;;;;58.20;55.77;;;12.50;99.90;;;;;;5051275;28;20939;-67
2024/02/16 08:18:07;;;;;;;62.27;59.77;;;12.60;99.90;;;;;;5051714;28;20483;-68
2024/02/16 08:20:34;;;;;;;53.90;51.50;;;12.70;99.90;;;;;;5051494;28;20827;-67
2024/02/16 08:23:03;;;;;;;46.70;44.15;;;12.80;99.90;;;;;;5049958;28;20467;-68
2024/02/16 08:25:30;;;;;;;15.73;14.63;;;12.90;99.90;;;;;;5051751;28;20291;-67
2024/02/16 08:27:57;;;;;;;14.17;13.07;;;13.10;99.90;;;;;;5051187;28;20453;-67
2024/02/16 08:30:25;;;;;;;11.67;9.57;;;13.20;99.90;;;;;;5051671;28;20454;-68
2024/02/16 08:32:52;;;;;;;9.20;7.37;;;13.30;99.90;;;;;;5051176;28;20471;-68
2024/02/16 08:35:19;;;;;;;10.80;9.70;;;13.40;99.90;;;;;;5051517;28;20455;-67
2024/02/16 08:37:46;;;;;;;10.30;9.33;;;13.60;99.90;;;;;;5051487;28;20489;-68
2024/02/16 08:40:15;;;;;;;7.70;7.00;;;13.60;99.90;;;;;;5052270;28;20451;-67
2024/02/16 08:42:42;;;;;;;12.03;7.97;;;13.70;99.90;;;;;;5055693;28;20475;-67
2024/02/16 08:45:10;;;;;;;18.60;7.90;;;13.70;99.90;;;;;;5055888;28;20454;-68
2024/02/16 08:47:37;;;;;;;10.90;7.80;;;13.70;99.90;;;;;;5055838;28;20455;-67
2024/02/16 08:50:04;;;;;;;11.50;6.67;;;13.80;99.90;;;;;;5055330;28;20544;-68
2024/02/16 08:52:32;;;;;;;8.13;6.50;;;13.70;99.90;;;;;;5055436;28;20478;-67
2024/02/16 08:54:59;;;;;;;10.77;7.70;;;13.70;99.90;;;;;;5055960;28;20929;-68
2024/02/16 08:57:28;;;;;;;8.70;7.40;;;13.80;99.90;;;;;;5055652;28;20459;-68
2024/02/16 08:59:56;;;;;;;8.70;7.40;;;13.80;99.90;;;;;;5055256;28;20462;-68
2024/02/16 09:02:22;;;;;;;8.93;7.77;;;13.80;99.90;;;;;;5055795;28;20502;-67
2024/02/16 09:04:49;;;;;;;10.33;9.40;;;13.80;99.90;;;;;;5055346;28;20455;-68
2024/02/16 09:07:16;;;;;;;11.33;10.20;;;13.80;99.90;;;;;;5055363;28;20458;-67
2024/02/16 09:09:43;;;;;;;12.70;11.60;;;13.80;99.90;;;;;;5055117;28;20454;-68
2024/02/16 09:12:11;;;;;;;14.27;12.97;;;13.80;99.90;;;;;;5054763;28;20454;-68
2024/02/16 09:14:39;;;;;;;21.23;19.47;;;13.80;99.90;;;;;;5055058;28;20455;-68
2024/02/16 09:17:06;;;;;;;17.67;16.20;;;13.90;99.90;;;;;;5055118;28;20455;-68
2024/02/16 09:19:32;;;;;;;18.90;17.57;;;13.80;99.90;;;;;;5054853;28;20479;-68
2024/02/16 09:22:02;;;;;;;23.37;21.77;;;13.80;99.90;;;;;;5054779;28;20845;-68
2024/02/16 09:24:29;;;;;;;15.50;14.40;;;13.90;99.90;;;;;;5054936;28;20580;-68
2024/02/16 09:26:56;;;;;;;17.37;15.93;;;14.00;99.90;;;;;;5054935;28;20453;-68
2024/02/16 09:29:23;;;;;;;15.90;14.50;;;14.00;99.90;;;;;;5054805;28;20950;-68
2024/02/16 09:31:51;;;;;;;10.60;9.40;;;14.00;99.90;;;;;;5054655;28;20459;-68
2024/02/16 09:34:18;;;;;;;13.50;12.13;;;14.00;99.90;;;;;;5054707;28;20478;-67
2024/02/16 09:36:45;;;;;;;12.53;11.43;;;14.00;99.90;;;;;;5054883;28;20457;-67
2024/02/16 09:39:13;;;;;;;12.67;11.43;;;14.00;99.90;;;;;;5054457;28;20490;-68
2024/02/16 09:41:43;;;;;;;16.60;15.33;;;14.00;99.90;;;;;;5054255;28;20459;-68
2024/02/16 09:44:11;;;;;;;16.80;15.40;;;14.00;99.90;;;;;;5054155;28;20996;-67
2024/02/16 09:46:37;;;;;;;20.23;17.27;;;14.10;99.90;;;;;;5054618;28;20954;-68
2024/02/16 09:49:06;;;;;;;21.90;20.20;;;14.00;99.90;;;;;;5054208;28;20443;-68
2024/02/16 09:51:36;;;;;;;17.83;16.33;;;14.10;99.90;;;;;;5053658;28;20453;-68
2024/02/16 09:54:04;;;;;;;17.00;15.50;;;14.00;99.90;;;;;;5053512;28;20569;-68
2024/02/16 09:56:31;;;;;;;20.47;19.07;;;14.10;99.90;;;;;;5054275;28;20489;-67
2024/02/16 09:58:59;;;;;;;28.53;26.10;;;14.10;99.90;;;;;;5053625;28;20487;-67
2024/02/16 10:01:26;;;;;;;32.17;30.57;;;14.10;99.90;;;;;;5054359;28;20459;-68
2024/02/16 10:03:53;;;;;;;25.10;23.20;;;14.00;99.90;;;;;;5053814;28;20471;-68
2024/02/16 10:06:22;;;;;;;22.77;21.43;;;13.90;99.90;;;;;;5054178;28;20458;-68
2024/02/16 10:08:50;;;;;;;31.57;29.00;;;14.00;99.90;;;;;;5053961;28;20990;-70
2024/02/16 10:11:18;;;;;;;27.10;25.37;;;14.10;99.90;;;;;;5053470;28;20451;-70
2024/02/16 10:13:56;;;;;;;15.67;13.63;;;14.30;99.90;;;;;;5053482;28;20471;-70
2024/02/16 10:16:23;;;;;;;13.87;8.70;;;14.50;99.90;;;;;;5054493;28;20942;-70
2024/02/16 10:18:50;;;;;;;10.93;9.70;;;14.70;99.90;;;;;;5053702;28;20486;-69
2024/02/16 10:21:27;;;;;;;10.20;7.23;;;14.80;99.90;;;;;;5053772;28;20938;-68
2024/02/16 10:24:00;;;;;;;10.53;6.30;;;14.90;99.90;;;;;;5053219;28;20477;-68
2024/02/16 10:26:27;;;;;;;9.03;5.00;;;15.00;99.90;;;;;;5054285;28;20459;-69
2024/02/16 10:28:57;;;;;;;10.97;5.03;;;15.00;99.90;;;;;;5053995;28;20443;-69
2024/02/16 10:31:28;;;;;;;11.50;4.40;;;15.10;99.90;;;;;;5053882;28;20496;-68
2024/02/16 10:33:57;;;;;;;10.07;4.70;;;15.10;99.90;;;;;;5053040;28;21035;-69
2024/02/16 10:36:28;;;;;;;12.13;6.00;;;15.10;99.90;;;;;;5053347;28;20455;-69
2024/02/16 10:38:56;;;;;;;11.27;5.70;;;15.10;99.90;;;;;;5053206;28;20502;-68
2024/02/16 10:41:26;;;;;;;10.47;5.10;;;15.00;99.90;;;;;;5053606;28;20863;-68
2024/02/16 10:43:55;;;;;;;12.07;6.30;;;15.10;99.90;;;;;;5053204;28;20482;-68
2024/02/16 10:46:23;;;;;;;9.30;4.93;;;15.10;99.90;;;;;;5053411;28;20463;-68
2024/02/16 10:48:50;;;;;;;11.83;6.10;;;15.20;99.90;;;;;;5052979;28;20455;-68
2024/02/16 10:51:25;;;;;;;9.87;6.10;;;15.30;99.90;;;;;;5053414;28;20447;-67
2024/02/16 10:53:56;;;;;;;8.53;4.97;;;15.40;99.90;;;;;;5052607;28;20482;-68
2024/02/16 10:56:33;;;;;;;10.70;4.60;;;15.40;99.90;;;;;;5053240;28;20459;-68
2024/02/16 10:59:03;;;;;;;9.50;4.83;;;15.50;99.90;;;;;;5052880;28;21005;-68
2024/02/16 11:01:33;;;;;;;17.60;5.83;;;15.50;99.90;;;;;;5052682;28;20501;-68
2024/02/16 11:04:08;;;;;;;20.05;6.75;;;15.60;99.90;;;;;;5052455;28;20455;-68
2024/02/16 11:06:46;;;;;;;8.40;4.30;;;15.60;99.90;;;;;;5052981;28;20455;-68
2024/02/16 11:09:24;;;;;;;8.40;4.03;;;15.70;99.90;;;;;;5045252;28;20470;-67
2024/02/16 11:11:54;;;;;;;11.50;5.00;;;15.70;99.90;;;;;;5052434;28;20471;-67
2024/02/16 11:14:23;;;;;;;8.47;4.53;;;15.70;99.90;;;;;;5052784;28;20517;-67
2024/02/16 11:16:49;;;;;;;16.00;4.70;;;15.60;99.90;;;;;;5052649;28;20741;-67
2024/02/16 11:19:19;;;;;;;8.33;3.67;;;15.50;99.90;;;;;;5052482;28;20491;-67
2024/02/16 11:21:57;;;;;;;16.73;3.70;;;15.30;99.90;;;;;;5052173;28;20879;-67
2024/02/16 11:24:31;;;;;;;8.43;4.73;;;15.20;99.90;;;;;;5052187;28;20521;-67
2024/02/16 11:26:58;;;;;;;11.00;5.67;;;15.20;99.90;;;;;;5052638;28;20455;-68
2024/02/16 11:29:26;;;;;;;10.43;5.27;;;15.20;99.90;;;;;;5052634;28;20458;-70
2024/02/16 11:31:54;;;;;;;7.70;4.60;;;15.20;99.90;;;;;;5052258;28;20458;-68
2024/02/16 11:34:25;;;;;;;10.23;5.50;;;15.20;99.90;;;;;;5052590;28;20498;-68
2024/02/16 11:36:54;;;;;;;11.70;5.10;;;15.30;99.90;;;;;;5052662;28;20950;-68
2024/02/16 11:39:21;;;;;;;10.60;5.87;;;15.30;99.90;;;;;;5052618;28;20862;-68
2024/02/16 11:42:01;;;;;;;15.33;5.33;;;15.30;99.90;;;;;;5050726;28;20456;-68
2024/02/16 11:44:28;;;;;;;10.90;5.37;;;15.30;99.90;;;;;;5052115;28;20450;-67
2024/02/16 11:46:55;;;;;;;9.30;5.00;;;15.30;99.90;;;;;;5050760;28;20455;-67
2024/02/16 11:49:22;;;;;;;9.60;5.60;;;15.30;99.90;;;;;;5052007;28;20986;-66
2024/02/16 11:51:49;;;;;;;8.90;4.70;;;15.30;99.90;;;;;;5051951;28;20494;-67
2024/02/16 11:54:16;;;;;;;10.13;5.83;;;15.40;99.90;;;;;;5051709;28;20471;-68
2024/02/16 11:56:45;;;;;;;18.97;6.90;;;15.40;99.90;;;;;;5051868;28;20451;-67
2024/02/16 11:59:14;;;;;;;13.20;6.20;;;15.40;99.90;;;;;;5051882;28;20985;-67
2024/02/16 12:01:50;;;;;;;12.63;5.63;;;15.40;99.90;;;;;;5051352;28;20458;-66
2024/02/16 12:04:22;;;;;;;8.83;5.63;;;15.40;99.90;;;;;;5051597;28;20471;-67
2024/02/16 12:06:49;;;;;;;11.90;7.10;;;15.40;99.90;;;;;;5052033;28;20455;-69
2024/02/16 12:09:17;;;;;;;9.57;6.07;;;15.40;99.90;;;;;;5052185;28;20458;-68
2024/02/16 12:11:44;;;;;;;11.43;7.70;;;15.40;99.90;;;;;;5051680;28;20451;-67
2024/02/16 12:14:11;;;;;;;9.93;6.60;;;15.30;99.90;;;;;;5052046;28;20478;-67
2024/02/16 12:16:39;;;;;;;10.27;5.87;;;15.40;99.90;;;;;;5051552;28;20450;-67
2024/02/16 12:19:07;;;;;;;11.17;5.57;;;15.30;99.90;;;;;;5052111;28;20856;-67
2024/02/16 12:21:33;;;;;;;11.77;6.70;;;15.30;99.90;;;;;;5052455;28;20455;-67
2024/02/16 12:24:00;;;;;;;10.70;6.30;;;15.30;99.90;;;;;;5054054;28;20481;-67
2024/02/16 12:26:27;;;;;;;11.00;6.67;;;15.20;99.90;;;;;;5053722;28;20457;-67